createdAt,value
2023-04-15T00:02:01.744Z,1.42
2023-04-15T00:04:30.570Z,1.60
2023-04-15T00:06:59.222Z,1.40
2023-04-15T00:09:28.230Z,1.20
2023-04-15T00:11:56.411Z,1.40
2023-04-15T00:14:25.074Z,1.90
2023-04-15T00:16:57.401Z,1.50
2023-04-15T00:19:26.094Z,1.70
2023-04-15T00:21:54.729Z,1.50
2023-04-15T00:24:23.405Z,1.63
2023-04-15T00:26:51.975Z,1.45
2023-04-15T00:29:20.806Z,1.40
2023-04-15T00:31:49.465Z,1.80
2023-04-15T00:34:18.057Z,1.50
2023-04-15T00:36:46.472Z,1.90
2023-04-15T00:39:15.577Z,1.63
2023-04-15T00:41:46.962Z,1.52
2023-04-15T00:44:15.875Z,1.80
2023-04-15T00:46:45.492Z,1.60
2023-04-15T00:49:14.481Z,1.60
2023-04-15T00:51:43.539Z,1.58
2023-04-15T00:54:12.970Z,1.80
2023-04-15T00:56:41.594Z,1.70
2023-04-15T00:59:10.624Z,1.90
2023-04-15T01:01:39.869Z,1.48
2023-04-15T01:04:08.568Z,1.50
2023-04-15T01:06:37.183Z,1.83
2023-04-15T01:09:05.826Z,1.73
2023-04-15T01:11:38.130Z,1.50
2023-04-15T01:14:07.186Z,1.80
2023-04-15T01:16:35.932Z,1.73
2023-04-15T01:19:04.548Z,1.67
2023-04-15T01:21:33.191Z,1.60
2023-04-15T01:24:01.991Z,1.77
2023-04-15T01:26:32.025Z,1.70
2023-04-15T01:29:00.789Z,1.90
2023-04-15T01:31:29.544Z,2.05
2023-04-15T01:33:58.191Z,2.05
2023-04-15T01:36:26.804Z,1.60
2023-04-15T01:38:55.878Z,1.80
2023-04-15T01:41:30.087Z,1.52
2023-04-15T01:43:58.764Z,1.33
2023-04-15T01:46:27.874Z,1.52
2023-04-15T01:48:56.020Z,1.30
2023-04-15T01:51:24.577Z,2.28
2023-04-15T01:53:53.735Z,17.23
2023-04-15T01:56:22.363Z,18.55
2023-04-15T01:58:50.928Z,7.28
2023-04-15T02:01:21.064Z,2.00
2023-04-15T02:03:50.199Z,1.70
2023-04-15T02:06:19.623Z,1.60
2023-04-15T02:08:48.459Z,1.75
2023-04-15T02:11:18.034Z,15.98
2023-04-15T02:13:46.618Z,13.32
2023-04-15T02:16:19.604Z,13.85
2023-04-15T02:18:48.716Z,15.75
2023-04-15T02:21:17.377Z,11.60
2023-04-15T02:23:46.153Z,2.30
2023-04-15T02:26:15.130Z,5.13
2023-04-15T02:28:43.716Z,4.38
2023-04-15T02:31:12.384Z,8.18
2023-04-15T02:33:40.955Z,16.35
2023-04-15T02:36:09.635Z,7.65
2023-04-15T02:38:39.574Z,2.35
2023-04-15T02:41:08.137Z,3.42
2023-04-15T02:43:36.824Z,4.47
2023-04-15T02:46:05.666Z,2.35
2023-04-15T02:48:34.321Z,2.08
2023-04-15T02:51:16.437Z,1.90
2023-04-15T02:53:45.022Z,1.92
2023-04-15T02:56:14.029Z,2.33
2023-04-15T02:58:42.572Z,2.47
2023-04-15T03:01:11.185Z,2.17
2023-04-15T03:03:39.907Z,2.88
2023-04-15T03:06:10.234Z,2.60
2023-04-15T03:08:38.742Z,3.20
2023-04-15T03:11:09.047Z,2.92
2023-04-15T03:13:37.630Z,4.55
2023-04-15T03:16:06.986Z,2.88
2023-04-15T03:18:35.616Z,4.32
2023-04-15T03:21:04.337Z,3.22
2023-04-15T03:23:33.314Z,3.00
2023-04-15T03:26:05.690Z,4.97
2023-04-15T03:28:34.381Z,2.70
2023-04-15T03:31:02.398Z,2.78
2023-04-15T03:33:31.110Z,3.30
2023-04-15T03:35:59.693Z,2.90
2023-04-15T03:38:28.399Z,2.90
2023-04-15T03:40:56.940Z,2.92
2023-04-15T03:43:25.573Z,3.05
2023-04-15T03:45:54.143Z,2.97
2023-04-15T03:48:23.018Z,3.28
2023-04-15T03:50:51.718Z,2.83
2023-04-15T03:53:20.270Z,2.80
2023-04-15T03:55:48.450Z,2.75
2023-04-15T03:58:17.251Z,2.50
2023-04-15T04:00:45.930Z,2.72
2023-04-15T04:03:14.811Z,2.83
2023-04-15T04:05:43.913Z,3.00
2023-04-15T04:08:15.088Z,3.08
2023-04-15T04:10:44.254Z,2.97
2023-04-15T04:13:12.831Z,3.17
2023-04-15T04:15:41.391Z,3.25
2023-04-15T04:18:09.455Z,3.58
2023-04-15T04:20:38.069Z,3.88
2023-04-15T04:23:06.907Z,3.53
2023-04-15T04:25:35.500Z,3.60
2023-04-15T04:28:04.172Z,3.72
2023-04-15T04:30:33.018Z,3.72
2023-04-15T04:33:01.643Z,3.60
2023-04-15T04:35:30.310Z,3.58
2023-04-15T04:37:59.074Z,3.80
2023-04-15T04:40:27.665Z,3.90
2023-04-15T04:42:56.271Z,4.40
2023-04-15T04:45:24.937Z,4.10
2023-04-15T04:47:53.489Z,3.88
2023-04-15T04:50:22.457Z,4.00
2023-04-15T04:52:51.096Z,3.70
2023-04-15T04:55:19.713Z,3.60
2023-04-15T04:57:48.703Z,4.18
2023-04-15T05:00:17.801Z,3.92
2023-04-15T05:02:46.916Z,3.50
2023-04-15T05:05:15.597Z,4.15
2023-04-15T05:07:44.269Z,3.40
2023-04-15T05:10:13.292Z,4.15
2023-04-15T05:12:41.992Z,4.13
2023-04-15T05:15:11.346Z,3.65
2023-04-15T05:17:39.922Z,3.72
2023-04-15T05:20:09.325Z,3.53
2023-04-15T05:22:38.209Z,3.45
2023-04-15T05:25:07.154Z,3.80
2023-04-15T05:27:35.944Z,4.30
2023-04-15T05:30:04.718Z,4.60
2023-04-15T05:32:32.778Z,4.40
2023-04-15T05:35:01.422Z,4.43
2023-04-15T05:37:29.961Z,4.10
2023-04-15T05:39:58.516Z,3.95
2023-04-15T05:42:27.291Z,4.20
2023-04-15T05:44:55.915Z,4.28
2023-04-15T05:47:24.636Z,4.47
2023-04-15T05:49:53.310Z,4.40
2023-04-15T05:52:21.344Z,4.10
2023-04-15T05:54:49.899Z,4.60
2023-04-15T05:57:18.564Z,4.80
2023-04-15T05:59:47.114Z,4.95
2023-04-15T06:02:15.791Z,4.97
2023-04-15T06:04:44.490Z,5.13
2023-04-15T06:07:13.403Z,5.00
2023-04-15T06:09:43.546Z,4.50
2023-04-15T06:12:13.613Z,4.65
2023-04-15T06:14:42.259Z,5.40
2023-04-15T06:17:10.846Z,5.20
2023-04-15T06:19:39.530Z,4.55
2023-04-15T06:22:08.620Z,5.43
2023-04-15T06:24:38.229Z,4.65
2023-04-15T06:27:06.814Z,5.03
2023-04-15T06:29:35.324Z,5.35
2023-04-15T06:32:03.853Z,5.70
2023-04-15T06:34:32.537Z,5.10
2023-04-15T06:37:02.649Z,5.63
2023-04-15T06:39:32.511Z,5.45
2023-04-15T06:42:01.062Z,6.30
2023-04-15T06:44:30.380Z,5.53
2023-04-15T06:46:59.805Z,5.70
2023-04-15T06:49:28.353Z,5.00
2023-04-15T06:51:56.994Z,5.80
2023-04-15T06:54:25.638Z,5.43
2023-04-15T06:56:54.514Z,4.95
2023-04-15T06:59:23.074Z,5.88
2023-04-15T07:01:51.954Z,5.70
2023-04-15T07:04:20.697Z,6.10
2023-04-15T07:06:49.334Z,5.68
2023-04-15T07:09:18.052Z,6.72
2023-04-15T07:11:46.636Z,5.85
2023-04-15T07:14:15.161Z,5.78
2023-04-15T07:16:43.807Z,5.70
2023-04-15T07:19:12.881Z,6.10
2023-04-15T07:21:42.015Z,7.47
2023-04-15T07:24:11.711Z,7.05
2023-04-15T07:26:40.404Z,6.85
2023-04-15T07:29:09.100Z,6.28
2023-04-15T07:31:38.187Z,7.25
2023-04-15T07:34:08.415Z,6.78
2023-04-15T07:36:37.134Z,6.28
2023-04-15T07:39:05.726Z,6.43
2023-04-15T07:41:34.307Z,7.05
2023-04-15T07:44:02.915Z,7.00
2023-04-15T07:46:32.002Z,7.85
2023-04-15T07:49:01.011Z,7.55
2023-04-15T07:51:31.014Z,6.72
2023-04-15T07:54:00.043Z,6.43
2023-04-15T07:56:29.096Z,7.13
2023-04-15T07:58:58.013Z,6.78
2023-04-15T08:01:26.573Z,7.53
2023-04-15T08:03:55.338Z,7.53
2023-04-15T08:06:24.174Z,7.50
2023-04-15T08:08:53.362Z,8.00
2023-04-15T08:11:23.132Z,8.32
2023-04-15T08:13:51.834Z,7.00
2023-04-15T08:16:28.849Z,7.95
2023-04-15T08:18:58.973Z,9.38
2023-04-15T08:21:28.930Z,7.75
2023-04-15T08:23:57.247Z,8.90
2023-04-15T08:26:25.782Z,8.32
2023-04-15T08:28:54.354Z,8.80
2023-04-15T08:31:23.585Z,8.82
2023-04-15T08:33:53.839Z,8.32
2023-04-15T08:36:22.409Z,8.98
2023-04-15T08:38:51.055Z,9.63
2023-04-15T08:41:26.821Z,9.57
2023-04-15T08:43:59.889Z,9.52
2023-04-15T08:46:28.692Z,9.95
2023-04-15T08:48:59.325Z,9.23
2023-04-15T08:51:29.062Z,9.20
2023-04-15T08:53:57.857Z,9.18
2023-04-15T08:56:30.650Z,10.35
2023-04-15T08:59:00.235Z,10.43
2023-04-15T09:01:29.458Z,11.13
2023-04-15T09:03:58.645Z,11.63
2023-04-15T09:06:27.615Z,11.73
2023-04-15T09:08:56.298Z,11.20
2023-04-15T09:11:25.182Z,11.20
2023-04-15T09:13:53.997Z,12.43
2023-04-15T09:16:22.562Z,10.20
2023-04-15T09:18:51.165Z,12.05
2023-04-15T09:21:20.479Z,11.85
2023-04-15T09:24:03.730Z,10.60
2023-04-15T09:26:37.435Z,10.43
2023-04-15T09:31:38.224Z,10.38
2023-04-15T09:34:08.172Z,10.32
2023-04-15T09:36:58.273Z,11.98
2023-04-15T09:39:26.966Z,12.90
2023-04-15T09:42:08.831Z,13.18
2023-04-15T09:44:37.772Z,13.35
2023-04-15T09:47:06.379Z,12.85
2023-04-15T09:49:35.498Z,12.82
2023-04-15T09:52:06.512Z,13.00
2023-04-15T09:54:40.015Z,12.18
2023-04-15T09:57:10.514Z,11.32
2023-04-15T09:59:39.272Z,13.48
2023-04-15T10:02:08.740Z,12.18
2023-04-15T10:04:39.789Z,14.90
2023-04-15T10:07:13.514Z,12.20
2023-04-15T10:09:42.260Z,13.75
2023-04-15T10:12:11.657Z,11.50
2023-04-15T10:14:40.556Z,12.38
2023-04-15T10:17:09.782Z,13.25
2023-04-15T10:19:39.610Z,14.20
2023-04-15T10:22:09.024Z,13.02
2023-04-15T10:24:37.883Z,13.30
2023-04-15T10:27:07.745Z,13.88
2023-04-15T10:29:36.839Z,13.15
2023-04-15T10:32:05.545Z,16.30
2023-04-15T10:34:34.521Z,15.20
2023-04-15T10:37:06.529Z,14.35
2023-04-15T10:39:38.868Z,13.00
2023-04-15T10:42:18.551Z,14.77
2023-04-15T10:44:51.145Z,15.07
2023-04-15T10:47:21.994Z,14.07
2023-04-15T10:49:51.218Z,14.27
2023-04-15T10:52:25.000Z,12.70
2023-04-15T10:55:24.233Z,15.13
2023-04-15T10:57:57.325Z,13.32
2023-04-15T11:00:31.518Z,13.50
2023-04-15T11:03:00.942Z,14.32
2023-04-15T11:05:45.066Z,15.60
2023-04-15T11:08:14.807Z,15.27
2023-04-15T11:10:43.664Z,14.95
2023-04-15T11:13:12.994Z,15.57
2023-04-15T11:15:46.441Z,16.38
2023-04-15T11:18:20.241Z,14.68
2023-04-15T11:20:53.517Z,15.05
2023-04-15T11:23:30.228Z,13.95
2023-04-15T11:25:59.824Z,15.27
2023-04-15T11:28:29.590Z,14.93
2023-04-15T11:30:58.968Z,14.70
2023-04-15T11:33:28.380Z,14.23
2023-04-15T11:35:56.940Z,13.98
2023-04-15T11:38:26.158Z,16.27
2023-04-15T11:40:54.718Z,15.23
2023-04-15T11:43:24.510Z,15.95
2023-04-15T11:45:57.753Z,15.27
2023-04-15T11:48:34.256Z,14.05
2023-04-15T11:51:07.598Z,13.13
2023-04-15T11:53:47.217Z,12.60
2023-04-15T11:56:26.778Z,12.95
2023-04-15T11:59:04.338Z,14.40
2023-04-15T12:01:37.645Z,13.27
2023-04-15T12:04:14.052Z,14.80
2023-04-15T12:06:43.046Z,14.02
2023-04-15T12:09:13.846Z,13.35
2023-04-15T12:11:48.466Z,15.35
2023-04-15T12:14:31.585Z,13.85
2023-04-15T12:17:06.139Z,14.40
2023-04-15T12:19:40.057Z,16.10
2023-04-15T12:22:12.332Z,15.68
2023-04-15T12:24:41.609Z,17.75
2023-04-15T12:27:13.993Z,14.98
2023-04-15T12:29:44.467Z,15.82
2023-04-15T12:32:17.588Z,17.42
2023-04-15T12:34:53.510Z,14.15
2023-04-15T12:37:22.319Z,13.73
2023-04-15T12:39:51.730Z,15.45
2023-04-15T12:42:20.721Z,14.20
2023-04-15T12:44:49.361Z,15.52
2023-04-15T12:47:17.989Z,15.02
2023-04-15T12:49:46.985Z,15.13
2023-04-15T12:52:16.340Z,14.73
2023-04-15T12:54:44.924Z,14.55
2023-04-15T12:57:13.775Z,13.93
2023-04-15T12:59:42.427Z,13.82
2023-04-15T13:02:11.048Z,15.57
2023-04-15T13:04:39.669Z,15.50
2023-04-15T13:07:08.342Z,15.93
2023-04-15T13:09:37.470Z,16.05
2023-04-15T13:12:07.136Z,13.85
2023-04-15T13:14:35.156Z,13.77
2023-04-15T13:17:05.449Z,14.68
2023-04-15T13:19:34.257Z,14.18
2023-04-15T13:22:03.117Z,14.70
2023-04-15T13:24:31.702Z,14.38
2023-04-15T13:27:00.522Z,15.60
2023-04-15T13:29:29.135Z,15.38
2023-04-15T13:31:57.975Z,14.18
2023-04-15T13:34:26.664Z,15.20
2023-04-15T13:36:55.362Z,15.93
2023-04-15T13:39:24.560Z,14.40
2023-04-15T13:41:53.168Z,14.50
2023-04-15T13:44:22.271Z,13.35
2023-04-15T13:46:50.991Z,15.32
2023-04-15T13:49:19.712Z,13.93
2023-04-15T13:51:48.280Z,13.98
2023-04-15T13:54:16.867Z,13.52
2023-04-15T13:56:45.433Z,13.93
2023-04-15T13:59:14.400Z,13.43
2023-04-15T14:01:42.987Z,13.68
2023-04-15T14:04:11.897Z,13.50
2023-04-15T14:06:40.556Z,13.52
2023-04-15T14:09:09.172Z,13.32
2023-04-15T14:11:39.450Z,14.13
2023-04-15T14:14:08.391Z,13.45
2023-04-15T14:16:37.485Z,14.07
2023-04-15T14:19:06.252Z,14.75
2023-04-15T14:21:35.037Z,15.13
2023-04-15T14:24:03.684Z,13.05
2023-04-15T14:26:32.257Z,13.40
2023-04-15T14:29:00.992Z,13.77
2023-04-15T14:31:29.580Z,13.88
2023-04-15T14:33:58.197Z,13.23
2023-04-15T14:36:27.481Z,14.75
2023-04-15T14:38:56.042Z,13.70
2023-04-15T14:41:24.720Z,12.88
2023-04-15T14:43:53.284Z,13.18
2023-04-15T14:46:22.141Z,12.75
2023-04-15T14:48:51.137Z,13.02
2023-04-15T14:51:20.146Z,13.82
2023-04-15T14:53:48.767Z,12.65
2023-04-15T14:56:17.491Z,12.68
2023-04-15T14:58:46.070Z,13.07
2023-04-15T15:01:14.814Z,12.40
2023-04-15T15:03:43.582Z,13.13
2023-04-15T15:06:12.361Z,12.73
2023-04-15T15:08:41.088Z,12.23
2023-04-15T15:11:09.836Z,11.38
2023-04-15T15:13:38.545Z,11.00
2023-04-15T15:16:07.458Z,10.32
2023-04-15T15:18:36.962Z,10.52
2023-04-15T15:21:05.786Z,11.02
2023-04-15T15:23:34.426Z,10.48
2023-04-15T15:26:03.029Z,10.30
2023-04-15T15:28:31.730Z,10.77
2023-04-15T15:31:00.418Z,10.02
2023-04-15T15:33:30.227Z,9.95
2023-04-15T15:35:59.744Z,9.75
2023-04-15T15:38:28.357Z,10.70
2023-04-15T15:40:56.991Z,10.15
2023-04-15T15:43:25.784Z,10.27
2023-04-15T15:45:56.678Z,9.27
2023-04-15T15:48:25.829Z,9.25
2023-04-15T15:50:54.911Z,9.07
2023-04-15T15:53:25.573Z,9.18
2023-04-15T15:55:54.252Z,8.65
2023-04-15T15:58:22.905Z,9.07
2023-04-15T16:00:51.651Z,8.02
2023-04-15T16:03:20.553Z,8.00
2023-04-15T16:05:49.366Z,8.23
2023-04-15T16:08:18.480Z,7.35
2023-04-15T16:10:47.114Z,7.63
2023-04-15T16:13:15.930Z,7.93
2023-04-15T16:15:44.505Z,7.80
2023-04-15T16:18:13.096Z,6.80
2023-04-15T16:20:44.868Z,6.57
2023-04-15T16:23:18.431Z,6.72
2023-04-15T16:25:47.083Z,5.07
2023-04-15T16:28:25.540Z,5.85
2023-04-15T16:30:54.906Z,5.75
2023-04-15T16:33:23.425Z,6.35
2023-04-15T16:35:52.992Z,5.60
2023-04-15T16:38:22.102Z,5.50
2023-04-15T16:40:50.827Z,4.68
2023-04-15T16:43:19.395Z,4.88
2023-04-15T16:45:51.701Z,6.18
2023-04-15T16:48:21.200Z,6.57
2023-04-15T16:50:50.565Z,4.18
2023-04-15T16:53:18.762Z,4.55
2023-04-15T16:55:47.302Z,4.00
2023-04-15T16:58:15.911Z,4.07
2023-04-15T17:00:44.560Z,3.92
2023-04-15T17:03:13.243Z,3.25
2023-04-15T17:05:43.490Z,3.47
2023-04-15T17:08:11.602Z,3.45
2023-04-15T17:10:41.204Z,2.90
2023-04-15T17:13:09.913Z,3.33
2023-04-15T17:15:38.587Z,3.28
2023-04-15T17:18:07.378Z,2.80
2023-04-15T17:20:36.214Z,3.10
2023-04-15T17:23:05.605Z,2.70
2023-04-15T17:25:34.235Z,2.90
2023-04-15T17:28:03.050Z,3.00
2023-04-15T17:30:31.616Z,2.60
2023-04-15T17:33:00.493Z,2.85
2023-04-15T17:35:29.129Z,2.85
2023-04-15T17:37:57.715Z,2.97
2023-04-15T17:40:26.346Z,2.70
2023-04-15T17:42:54.431Z,2.45
2023-04-15T17:45:22.983Z,2.00
2023-04-15T17:47:51.738Z,2.20
2023-04-15T17:50:20.344Z,2.15
2023-04-15T17:52:49.714Z,2.30
2023-04-15T17:55:18.495Z,2.20
2023-04-15T17:57:47.982Z,2.20
2023-04-15T18:00:17.847Z,2.58
2023-04-15T18:02:46.738Z,1.88
2023-04-15T18:05:15.899Z,2.25
2023-04-15T18:07:44.545Z,1.70
2023-04-15T18:10:13.443Z,1.83
2023-04-15T18:12:42.297Z,2.05
2023-04-15T18:15:11.568Z,1.83
2023-04-15T18:17:39.745Z,1.50
2023-04-15T18:20:08.852Z,1.80
2023-04-15T18:22:37.412Z,1.73
2023-04-15T18:25:06.417Z,1.55
2023-04-15T18:27:40.582Z,1.60
2023-04-15T18:30:10.659Z,1.50
2023-04-15T18:32:40.032Z,1.60
2023-04-15T18:35:09.129Z,1.40
2023-04-15T18:37:37.197Z,1.23
2023-04-15T18:40:06.049Z,1.33
2023-04-15T18:42:34.629Z,1.00
2023-04-15T18:45:03.408Z,1.52
2023-04-15T18:47:32.085Z,1.48
2023-04-15T18:50:00.840Z,1.50
2023-04-15T18:52:29.502Z,1.80
2023-04-15T18:54:58.109Z,1.30
2023-04-15T18:57:31.581Z,1.48
2023-04-15T19:00:03.382Z,1.77
2023-04-15T19:02:32.332Z,1.67
2023-04-15T19:05:04.866Z,1.30
2023-04-15T19:07:33.501Z,1.50
2023-04-15T19:10:02.294Z,1.48
2023-04-15T19:12:31.290Z,1.55
2023-04-15T19:14:59.917Z,1.30
2023-04-15T19:17:28.536Z,1.40
2023-04-15T19:19:57.517Z,1.20
2023-04-15T19:22:26.292Z,1.40
2023-04-15T19:24:54.916Z,1.35
2023-04-15T19:27:23.497Z,1.00
2023-04-15T19:29:52.107Z,1.60
2023-04-15T19:32:20.721Z,1.23
2023-04-15T19:34:49.941Z,1.52
2023-04-15T19:37:19.697Z,1.20
2023-04-15T19:39:48.337Z,0.85
2023-04-15T19:42:17.145Z,0.98
2023-04-15T19:44:45.980Z,0.90
2023-04-15T19:47:14.542Z,0.90
2023-04-15T19:49:43.366Z,1.10
2023-04-15T19:52:12.157Z,1.00
2023-04-15T19:54:40.745Z,1.13
2023-04-15T19:57:09.501Z,0.98
2023-04-15T19:59:39.017Z,0.90
2023-04-15T20:02:07.795Z,0.90
2023-04-15T20:04:36.551Z,1.02
2023-04-15T20:07:05.284Z,1.00
2023-04-15T20:09:34.210Z,1.05
2023-04-15T20:12:44.960Z,1.00
2023-04-15T20:14:51.248Z,1.20
2023-04-15T20:17:19.425Z,1.25
2023-04-15T20:19:47.646Z,1.20
2023-04-15T20:22:15.716Z,1.20
2023-04-15T20:24:43.747Z,1.00
2023-04-15T20:27:13.160Z,1.25
2023-04-15T20:29:41.312Z,1.40
2023-04-15T20:32:12.208Z,1.10
2023-04-15T20:34:43.038Z,1.23
2023-04-15T20:37:15.407Z,1.20
2023-04-15T20:39:43.381Z,1.17
2023-04-15T20:42:11.432Z,1.35
2023-04-15T20:44:39.651Z,1.20
2023-04-15T20:47:08.534Z,1.10
2023-04-15T20:49:37.722Z,1.30
2023-04-15T20:52:07.423Z,1.70
2023-04-15T20:54:35.442Z,1.40
2023-04-15T20:57:04.034Z,1.60
2023-04-15T20:59:34.225Z,1.45
2023-04-15T21:02:02.489Z,1.30
2023-04-15T21:04:31.146Z,1.20
2023-04-15T21:06:59.735Z,1.23
2023-04-15T21:09:28.295Z,1.40
2023-04-15T21:12:01.691Z,1.30
2023-04-15T21:14:30.954Z,1.52
2023-04-15T21:16:59.764Z,1.40
2023-04-15T21:19:28.308Z,1.40
2023-04-15T21:21:56.909Z,1.30
2023-04-15T21:24:25.462Z,1.70
2023-04-15T21:26:54.116Z,1.40
2023-04-15T21:29:22.793Z,1.50
2023-04-15T21:31:51.664Z,1.30
2023-04-15T21:34:20.353Z,1.17
2023-04-15T21:36:49.071Z,1.30
2023-04-15T21:39:18.346Z,1.15
2023-04-15T21:41:47.076Z,1.10
2023-04-15T21:44:15.284Z,1.10
2023-04-15T21:46:45.979Z,1.30
2023-04-15T21:49:14.826Z,2.63
2023-04-15T21:51:42.893Z,3.28
2023-04-15T21:54:10.989Z,5.50
2023-04-15T21:56:39.231Z,3.35
2023-04-15T21:59:07.412Z,2.70
2023-04-15T22:01:35.679Z,1.42
2023-04-15T22:04:04.101Z,2.30
2023-04-15T22:06:32.374Z,2.28
2023-04-15T22:09:00.333Z,1.60
2023-04-15T22:11:28.956Z,1.50
2023-04-15T22:13:58.345Z,1.58
2023-04-15T22:16:29.474Z,2.40
2023-04-15T22:18:57.533Z,2.28
2023-04-15T22:21:25.554Z,2.05
2023-04-15T22:24:33.904Z,1.92
2023-04-15T22:26:42.296Z,1.50
2023-04-15T22:29:11.206Z,1.20
2023-04-15T22:31:39.904Z,1.40
2023-04-15T22:34:08.528Z,1.40
2023-04-15T22:36:37.191Z,1.70
2023-04-15T22:39:06.283Z,1.80
2023-04-15T22:41:35.201Z,1.60
2023-04-15T22:44:03.723Z,1.35
2023-04-15T22:46:32.586Z,1.60
2023-04-15T22:49:01.236Z,1.27
2023-04-15T22:51:30.018Z,1.30
2023-04-15T22:53:58.679Z,1.50
2023-04-15T22:56:27.531Z,1.40
2023-04-15T22:58:56.232Z,1.25
2023-04-15T23:01:24.956Z,1.23
2023-04-15T23:03:57.289Z,1.40
2023-04-15T23:06:38.531Z,1.20
2023-04-15T23:09:07.667Z,1.35
2023-04-15T23:11:37.376Z,1.38
2023-04-15T23:14:05.980Z,2.95
2023-04-15T23:16:34.673Z,2.70
2023-04-15T23:19:03.442Z,1.70
2023-04-15T23:21:32.597Z,1.40
2023-04-15T23:24:01.102Z,1.60
2023-04-15T23:26:29.713Z,1.70
2023-04-15T23:28:58.277Z,2.90
2023-04-15T23:31:26.912Z,4.38
2023-04-15T23:33:55.514Z,1.50
2023-04-15T23:36:24.073Z,2.53
2023-04-15T23:38:52.720Z,1.38
2023-04-15T23:41:21.373Z,1.40
2023-04-15T23:43:51.025Z,1.38
2023-04-15T23:46:19.617Z,1.40
2023-04-15T23:48:49.193Z,1.58
2023-04-15T23:51:18.657Z,1.30
2023-04-15T23:53:47.534Z,1.40
2023-04-15T23:56:16.096Z,1.15
2023-04-15T23:58:44.686Z,1.27
